createdAt,value
2022-12-28T00:01:52.784Z,-1.35
2022-12-28T00:04:20.463Z,-1.35
2022-12-28T00:06:50.985Z,-1.38
2022-12-28T00:09:18.541Z,-1.36
2022-12-28T00:11:46.095Z,-1.40
2022-12-28T00:14:13.801Z,-1.77
2022-12-28T00:16:42.357Z,-1.36
2022-12-28T00:19:13.381Z,-1.36
2022-12-28T00:21:41.179Z,-1.36
2022-12-28T00:24:11.361Z,-1.40
2022-12-28T00:26:39.061Z,-1.40
2022-12-28T00:29:06.731Z,-1.58
2022-12-28T00:31:34.580Z,-1.46
2022-12-28T00:34:03.420Z,-1.45
2022-12-28T00:37:11.204Z,-1.42
2022-12-28T00:39:20.721Z,-1.81
2022-12-28T00:41:48.974Z,-1.47
2022-12-28T00:44:16.947Z,-1.42
2022-12-28T00:46:44.323Z,-1.41
2022-12-28T00:49:12.317Z,-1.43
2022-12-28T00:51:39.586Z,-1.46
2022-12-28T00:54:07.328Z,-1.44
2022-12-28T00:56:34.859Z,-1.57
2022-12-28T00:59:02.390Z,-1.44
2022-12-28T01:01:30.017Z,-1.43
2022-12-28T01:03:59.871Z,-1.44
2022-12-28T01:06:28.696Z,-1.82
2022-12-28T01:08:58.187Z,-1.47
2022-12-28T01:11:30.720Z,-1.46
2022-12-28T01:14:00.447Z,-1.77
2022-12-28T01:16:34.460Z,-1.51
2022-12-28T01:19:06.283Z,-1.49
2022-12-28T01:21:35.713Z,-1.51
2022-12-28T01:24:05.633Z,-1.47
2022-12-28T01:26:35.571Z,-1.59
2022-12-28T01:29:03.259Z,-1.47
2022-12-28T01:31:32.970Z,-1.47
2022-12-28T01:34:00.610Z,-1.48
2022-12-28T01:36:31.746Z,-1.48
2022-12-28T01:39:01.798Z,-1.51
2022-12-28T01:41:34.151Z,-1.52
2022-12-28T01:44:01.500Z,-1.53
2022-12-28T01:46:46.002Z,-2.22
2022-12-28T01:49:15.681Z,-1.51
2022-12-28T01:51:52.061Z,-1.46
2022-12-28T01:54:22.360Z,-1.69
2022-12-28T01:56:52.440Z,-1.47
2022-12-28T01:59:24.897Z,-1.47
2022-12-28T02:01:52.577Z,-1.39
2022-12-28T02:04:20.144Z,-1.44
2022-12-28T02:06:47.895Z,-1.44
2022-12-28T02:09:21.744Z,-1.44
2022-12-28T02:11:50.945Z,-1.47
2022-12-28T02:14:20.492Z,-1.44
2022-12-28T02:16:48.269Z,-1.40
2022-12-28T02:19:21.789Z,-1.44
2022-12-28T02:22:20.862Z,-1.43
2022-12-28T02:25:11.363Z,-1.41
2022-12-28T02:28:28.774Z,-1.46
2022-12-28T02:31:29.969Z,-1.53
2022-12-28T02:34:14.537Z,-1.50
2022-12-28T02:36:55.619Z,-1.49
2022-12-28T02:39:37.727Z,-1.75
2022-12-28T02:42:09.837Z,-1.34
2022-12-28T02:44:56.526Z,-1.34
2022-12-28T02:47:43.094Z,-1.69
2022-12-28T02:50:14.625Z,-1.37
2022-12-28T02:52:51.225Z,-1.36
2022-12-28T02:55:44.437Z,-1.59
2022-12-28T02:58:24.394Z,-1.56
2022-12-28T03:01:10.866Z,-1.60
2022-12-28T03:04:24.105Z,-1.59
2022-12-28T03:07:27.661Z,-1.53
2022-12-28T03:10:17.710Z,-1.64
2022-12-28T03:12:59.233Z,-1.67
2022-12-28T03:15:31.281Z,-1.67
2022-12-28T03:18:27.743Z,-2.00
2022-12-28T03:21:18.144Z,-1.64
2022-12-28T03:24:06.750Z,-1.83
2022-12-28T03:26:59.173Z,-1.52
2022-12-28T03:29:55.474Z,-1.61
2022-12-28T03:32:23.102Z,-1.60
2022-12-28T03:34:51.043Z,-1.57
2022-12-28T03:37:28.607Z,-1.81
2022-12-28T03:40:02.570Z,-1.51
2022-12-28T03:42:53.781Z,-1.53
2022-12-28T03:45:45.829Z,-1.52
2022-12-28T03:48:18.284Z,-1.56
2022-12-28T03:50:48.839Z,-1.78
2022-12-28T03:53:20.340Z,-1.73
2022-12-28T03:55:49.978Z,-2.47
2022-12-28T03:58:21.825Z,-1.81
2022-12-28T04:00:50.862Z,-1.80
2022-12-28T04:03:21.089Z,-1.79
2022-12-28T04:05:48.619Z,-1.78
2022-12-28T04:08:16.770Z,-1.78
2022-12-28T04:10:44.479Z,-1.80
2022-12-28T04:13:11.828Z,-1.79
2022-12-28T04:15:57.420Z,-1.72
2022-12-28T04:18:24.947Z,-1.64
2022-12-28T04:20:53.113Z,-1.62
2022-12-28T04:23:22.199Z,-1.68
2022-12-28T04:26:08.068Z,-1.72
2022-12-28T04:28:36.014Z,-1.67
2022-12-28T04:31:30.711Z,-1.67
2022-12-28T04:34:03.751Z,-1.70
2022-12-28T04:36:34.474Z,-1.63
2022-12-28T04:39:07.287Z,-1.61
2022-12-28T04:41:35.397Z,-1.62
2022-12-28T04:44:02.868Z,-1.61
2022-12-28T04:46:30.605Z,-1.65
2022-12-28T04:48:57.902Z,-1.89
2022-12-28T04:51:27.417Z,-1.69
2022-12-28T04:53:56.338Z,-1.70
2022-12-28T04:56:25.815Z,-1.71
2022-12-28T04:58:57.734Z,-2.41
2022-12-28T05:01:26.487Z,-1.72
2022-12-28T05:03:58.263Z,-1.73
2022-12-28T05:06:28.093Z,-1.74
2022-12-28T05:08:56.941Z,-1.67
2022-12-28T05:11:28.168Z,-1.68
2022-12-28T05:13:56.246Z,-1.67
2022-12-28T05:16:25.819Z,-1.70
2022-12-28T05:18:53.453Z,-1.63
2022-12-28T05:21:26.768Z,-1.65
2022-12-28T05:23:55.019Z,-1.64
2022-12-28T05:26:25.850Z,-1.66
2022-12-28T05:28:53.596Z,-1.66
2022-12-28T05:31:22.951Z,-1.67
2022-12-28T05:33:51.409Z,-2.01
2022-12-28T05:36:22.290Z,-1.67
2022-12-28T05:38:50.131Z,-1.69
2022-12-28T05:41:21.197Z,-1.69
2022-12-28T05:43:49.865Z,-1.69
2022-12-28T05:46:24.355Z,-1.67
2022-12-28T05:48:52.544Z,-1.66
2022-12-28T05:51:21.992Z,-1.64
2022-12-28T05:53:49.884Z,-1.62
2022-12-28T05:56:19.841Z,-1.63
2022-12-28T05:58:52.592Z,-1.60
2022-12-28T06:01:21.908Z,-1.61
2022-12-28T06:03:55.090Z,-2.22
2022-12-28T06:06:23.004Z,-1.51
2022-12-28T06:08:51.144Z,-1.52
2022-12-28T06:11:22.226Z,-1.51
2022-12-28T06:13:50.307Z,-1.47
2022-12-28T06:16:23.335Z,-1.73
2022-12-28T06:18:54.860Z,-1.42
2022-12-28T06:21:25.016Z,-1.42
2022-12-28T06:23:52.557Z,-1.43
2022-12-28T06:26:21.377Z,-1.38
2022-12-28T06:28:49.356Z,-1.37
2022-12-28T06:31:26.212Z,-1.76
2022-12-28T06:33:59.257Z,-1.40
2022-12-28T06:36:38.411Z,-1.72
2022-12-28T06:39:08.137Z,-1.40
2022-12-28T06:41:36.876Z,-2.07
2022-12-28T06:44:09.357Z,-1.43
2022-12-28T06:46:37.461Z,-1.41
2022-12-28T06:49:05.159Z,-1.38
2022-12-28T06:51:36.504Z,-1.35
2022-12-28T06:54:03.942Z,-1.39
2022-12-28T06:56:33.940Z,-1.38
2022-12-28T06:59:03.738Z,-1.61
2022-12-28T07:01:37.809Z,-1.42
2022-12-28T07:04:07.170Z,-1.40
2022-12-28T07:06:37.947Z,-1.38
2022-12-28T07:09:09.433Z,-1.34
2022-12-28T07:11:37.428Z,-1.29
2022-12-28T07:14:05.102Z,-1.28
2022-12-28T07:19:00.264Z,-1.18
2022-12-28T07:21:36.988Z,-1.22
2022-12-28T07:24:06.298Z,-1.23
2022-12-28T07:26:36.036Z,-1.20
2022-12-28T07:29:05.756Z,-1.11
2022-12-28T07:31:44.840Z,-1.09
2022-12-28T07:34:15.182Z,-1.01
2022-12-28T07:36:42.587Z,-1.00
2022-12-28T07:39:10.673Z,-0.97
2022-12-28T07:41:38.268Z,-0.99
2022-12-28T07:44:06.789Z,-0.94
2022-12-28T07:46:36.093Z,-0.97
2022-12-28T07:49:04.215Z,-0.97
2022-12-28T07:51:34.032Z,-1.02
2022-12-28T07:54:01.485Z,-1.07
2022-12-28T07:56:30.443Z,-1.04
2022-12-28T07:59:03.994Z,-1.04
2022-12-28T08:01:33.975Z,-1.25
2022-12-28T08:04:04.166Z,-0.97
2022-12-28T08:06:35.613Z,-0.96
2022-12-28T08:09:04.290Z,-0.95
2022-12-28T08:11:34.667Z,-1.32
2022-12-28T08:14:03.107Z,-0.96
2022-12-28T08:16:33.709Z,-0.97
2022-12-28T08:19:01.467Z,-0.92
2022-12-28T08:21:34.767Z,-0.96
2022-12-28T08:24:02.984Z,-0.93
2022-12-28T08:26:33.498Z,-0.93
2022-12-28T08:29:03.508Z,-1.21
2022-12-28T08:31:33.912Z,-0.85
2022-12-28T08:34:02.417Z,-0.83
2022-12-28T08:36:30.193Z,-1.28
2022-12-28T08:38:58.229Z,-1.14
2022-12-28T08:41:27.088Z,-0.79
2022-12-28T08:43:55.251Z,-0.76
2022-12-28T08:46:25.721Z,-0.77
2022-12-28T08:48:55.493Z,-0.80
2022-12-28T08:51:30.154Z,-0.79
2022-12-28T08:53:58.000Z,-0.73
2022-12-28T08:56:31.079Z,-0.70
2022-12-28T08:58:59.291Z,-0.98
2022-12-28T09:01:43.564Z,-0.70
2022-12-28T09:04:15.284Z,-0.68
2022-12-28T09:06:42.663Z,-0.63
2022-12-28T09:09:13.461Z,-0.67
2022-12-28T09:11:41.551Z,-0.62
2022-12-28T09:14:17.025Z,-0.62
2022-12-28T09:16:49.684Z,-0.62
2022-12-28T09:19:17.351Z,-0.94
2022-12-28T09:21:49.280Z,-0.54
2022-12-28T09:24:17.185Z,-0.53
2022-12-28T09:26:45.151Z,-0.44
2022-12-28T09:29:14.212Z,-0.43
2022-12-28T09:31:42.298Z,-0.48
2022-12-28T09:37:01.123Z,-0.60
2022-12-28T09:39:29.379Z,-0.28
2022-12-28T09:42:04.926Z,-0.29
2022-12-28T09:44:35.421Z,-0.29
2022-12-28T09:47:08.449Z,-0.30
2022-12-28T09:49:44.349Z,-0.33
2022-12-28T09:52:14.502Z,-0.38
2022-12-28T09:54:42.351Z,-0.38
2022-12-28T09:57:15.956Z,-0.40
2022-12-28T09:59:44.896Z,-0.37
2022-12-28T10:02:40.565Z,-0.40
2022-12-28T10:05:08.577Z,-0.46
2022-12-28T10:07:37.636Z,-0.47
2022-12-28T10:10:05.618Z,-0.45
2022-12-28T10:12:33.945Z,-0.46
2022-12-28T10:15:01.415Z,-0.43
2022-12-28T10:17:30.675Z,-0.49
2022-12-28T10:19:59.505Z,-0.38
2022-12-28T10:22:36.357Z,-0.35
2022-12-28T10:25:22.171Z,-0.33
2022-12-28T10:27:49.961Z,-0.27
2022-12-28T10:30:27.953Z,-0.23
2022-12-28T10:33:03.459Z,-0.18
2022-12-28T10:35:41.600Z,-0.20
2022-12-28T10:38:24.914Z,-0.20
2022-12-28T10:40:57.217Z,-0.24
2022-12-28T10:43:28.434Z,-0.26
2022-12-28T10:45:57.760Z,-0.26
2022-12-28T10:48:29.788Z,-0.36
2022-12-28T10:51:15.907Z,-0.35
2022-12-28T10:53:48.664Z,-0.32
2022-12-28T10:56:28.498Z,-0.38
2022-12-28T10:59:10.950Z,-0.28
2022-12-28T11:01:40.109Z,-0.19
2022-12-28T11:04:18.685Z,-0.20
2022-12-28T11:07:02.978Z,-0.17
2022-12-28T11:09:31.548Z,-0.12
2022-12-28T11:12:41.693Z,-0.14
2022-12-28T11:15:35.293Z,-0.09
2022-12-28T11:18:20.333Z,-0.05
2022-12-28T11:20:53.231Z,-0.07
2022-12-28T11:23:23.976Z,-0.07
2022-12-28T11:25:52.002Z,-0.33
2022-12-28T11:28:21.818Z,-0.02
2022-12-28T11:30:51.862Z,-0.23
2022-12-28T11:33:40.365Z,-0.03
2022-12-28T11:36:14.911Z,-0.11
2022-12-28T11:38:44.469Z,-0.06
2022-12-28T11:41:39.450Z,-0.07
2022-12-28T11:44:20.614Z,-0.14
2022-12-28T11:47:28.682Z,-0.57
2022-12-28T11:50:34.501Z,-0.14
2022-12-28T11:53:07.735Z,-0.13
2022-12-28T11:55:45.319Z,-0.45
2022-12-28T11:58:31.118Z,-0.24
2022-12-28T12:01:07.940Z,-0.24
2022-12-28T12:03:56.953Z,-0.33
2022-12-28T12:06:47.285Z,-0.39
2022-12-28T12:09:26.510Z,-0.41
2022-12-28T12:12:21.427Z,-0.50
2022-12-28T12:14:51.684Z,-0.84
2022-12-28T12:17:32.307Z,-0.68
2022-12-28T12:20:07.772Z,-0.68
2022-12-28T12:22:42.625Z,-0.72
2022-12-28T12:25:24.124Z,-0.78
2022-12-28T12:27:58.665Z,-0.78
2022-12-28T12:30:27.584Z,-1.39
2022-12-28T12:33:08.654Z,-0.73
2022-12-28T12:35:57.271Z,-0.75
2022-12-28T12:38:37.361Z,-0.81
2022-12-28T12:41:30.471Z,-0.81
2022-12-28T12:44:36.252Z,-0.89
2022-12-28T12:47:24.861Z,-1.21
2022-12-28T12:50:01.825Z,-0.89
2022-12-28T12:53:08.989Z,-1.20
2022-12-28T12:56:06.894Z,-0.94
2022-12-28T12:58:56.544Z,-0.92
2022-12-28T13:01:24.347Z,-0.91
2022-12-28T13:03:55.479Z,-0.95
2022-12-28T13:06:30.096Z,-0.99
2022-12-28T13:09:05.738Z,-1.04
2022-12-28T13:11:38.509Z,-1.63
2022-12-28T13:14:06.938Z,-1.28
2022-12-28T13:16:34.387Z,-1.03
2022-12-28T13:19:07.428Z,-1.06
2022-12-28T13:21:43.549Z,-1.37
2022-12-28T13:24:26.140Z,-1.02
2022-12-28T13:26:56.125Z,-1.05
2022-12-28T13:29:26.868Z,-1.06
2022-12-28T13:31:54.850Z,-1.11
2022-12-28T13:34:24.980Z,-1.06
2022-12-28T13:37:01.308Z,-1.11
2022-12-28T13:39:39.943Z,-1.73
2022-12-28T13:42:19.097Z,-1.18
2022-12-28T13:45:08.370Z,-1.24
2022-12-28T13:47:42.017Z,-1.31
2022-12-28T13:50:14.440Z,-1.20
2022-12-28T13:52:52.287Z,-1.20
2022-12-28T13:55:50.804Z,-1.23
2022-12-28T13:58:24.721Z,-1.57
2022-12-28T14:00:55.534Z,-1.54
2022-12-28T14:03:23.559Z,-1.27
2022-12-28T14:06:00.282Z,-1.26
2022-12-28T14:08:28.547Z,-1.45
2022-12-28T14:10:56.759Z,-1.38
2022-12-28T14:13:24.758Z,-1.36
2022-12-28T14:15:52.947Z,-1.45
2022-12-28T14:18:20.950Z,-1.40
2022-12-28T14:20:56.008Z,-1.51
2022-12-28T14:23:25.968Z,-1.45
2022-12-28T14:25:56.532Z,-1.48
2022-12-28T14:28:40.498Z,-1.55
2022-12-28T14:31:10.371Z,-1.87
2022-12-28T14:34:00.904Z,-1.55
2022-12-28T14:36:41.919Z,-1.58
2022-12-28T14:39:30.400Z,-1.61
2022-12-28T14:42:00.065Z,-1.96
2022-12-28T14:44:41.153Z,-1.63
2022-12-28T14:47:46.709Z,-1.67
2022-12-28T14:50:23.841Z,-1.73
2022-12-28T14:53:13.939Z,-1.62
2022-12-28T14:55:59.256Z,-1.61
2022-12-28T15:00:16.371Z,-1.86
2022-12-28T15:01:44.071Z,-1.58
2022-12-28T15:04:38.738Z,-1.57
2022-12-28T15:07:12.242Z,-1.45
2022-12-28T15:09:40.176Z,-1.50
2022-12-28T15:12:14.411Z,-1.46
2022-12-28T15:14:42.593Z,-1.43
2022-12-28T15:17:10.627Z,-1.42
2022-12-28T15:19:38.211Z,-1.38
2022-12-28T15:22:06.004Z,-1.58
2022-12-28T15:24:35.047Z,-1.38
2022-12-28T15:27:03.473Z,-1.33
2022-12-28T15:30:03.772Z,-1.23
2022-12-28T15:32:20.033Z,-1.21
2022-12-28T15:34:48.079Z,-1.24
2022-12-28T15:37:15.536Z,-1.29
2022-12-28T15:39:42.927Z,-1.29
2022-12-28T15:42:10.672Z,-1.48
2022-12-28T15:44:38.361Z,-1.24
2022-12-28T15:47:05.857Z,-1.28
2022-12-28T15:49:33.238Z,-1.21
2022-12-28T15:52:00.985Z,-1.23
2022-12-28T15:54:28.438Z,-1.26
2022-12-28T15:56:57.038Z,-1.56
2022-12-28T15:59:24.816Z,-1.25
2022-12-28T16:01:52.582Z,-1.30
2022-12-28T16:04:20.460Z,-1.52
2022-12-28T16:06:47.856Z,-1.52
2022-12-28T16:09:18.099Z,-1.30
2022-12-28T16:11:50.098Z,-1.31
2022-12-28T16:14:20.634Z,-1.30
2022-12-28T16:16:48.115Z,-1.31
2022-12-28T16:19:16.515Z,-1.64
2022-12-28T16:21:45.001Z,-1.24
2022-12-28T16:24:12.345Z,-1.23
2022-12-28T16:26:40.140Z,-1.26
2022-12-28T16:29:07.573Z,-1.57
2022-12-28T16:31:37.441Z,-1.28
2022-12-28T16:34:13.421Z,-1.50
2022-12-28T16:36:41.602Z,-1.26
2022-12-28T16:39:13.680Z,-1.70
2022-12-28T16:41:40.995Z,-1.26
2022-12-28T16:44:17.232Z,-1.25
2022-12-28T16:46:44.680Z,-1.23
2022-12-28T16:49:12.614Z,-1.27
2022-12-28T16:51:42.134Z,-1.23
2022-12-28T16:54:21.385Z,-1.29
2022-12-28T16:56:51.471Z,-1.27
2022-12-28T16:59:25.218Z,-1.30
2022-12-28T17:01:53.442Z,-1.29
2022-12-28T17:04:21.229Z,-1.27
2022-12-28T17:06:52.163Z,-1.23
2022-12-28T17:09:20.829Z,-1.60
2022-12-28T17:11:49.941Z,-1.23
2022-12-28T17:14:35.881Z,-1.20
2022-12-28T17:17:06.404Z,-1.47
2022-12-28T17:19:34.611Z,-1.12
2022-12-28T17:22:02.562Z,-1.07
2022-12-28T17:24:30.460Z,-1.11
2022-12-28T17:27:03.487Z,-1.13
2022-12-28T17:29:34.348Z,-1.29
2022-12-28T17:32:01.790Z,-1.21
2022-12-28T17:34:29.233Z,-1.20
2022-12-28T17:36:56.754Z,-1.21
2022-12-28T17:39:24.355Z,-1.18
2022-12-28T17:41:52.073Z,-1.18
2022-12-28T17:44:19.565Z,-1.15
2022-12-28T17:46:46.860Z,-1.09
2022-12-28T17:49:16.051Z,-1.08
2022-12-28T17:51:44.628Z,-1.40
2022-12-28T17:54:13.929Z,-1.08
2022-12-28T17:56:42.703Z,-1.05
2022-12-28T17:59:15.824Z,-1.08
2022-12-28T18:01:43.580Z,-1.31
2022-12-28T18:04:12.343Z,-1.09
2022-12-28T18:06:39.913Z,-1.08
2022-12-28T18:09:07.651Z,-1.33
2022-12-28T18:11:35.241Z,-1.09
2022-12-28T18:14:03.445Z,-0.99
2022-12-28T18:16:31.438Z,-1.00
2022-12-28T18:18:58.994Z,-1.00
2022-12-28T18:21:27.150Z,-0.94
2022-12-28T18:23:54.776Z,-1.16
2022-12-28T18:26:26.645Z,-1.05
2022-12-28T18:28:56.245Z,-0.70
2022-12-28T18:31:25.341Z,-0.68
2022-12-28T18:33:52.974Z,-0.68
2022-12-28T18:36:20.463Z,-0.70
2022-12-28T18:38:49.029Z,-0.79
2022-12-28T18:41:19.068Z,-1.10
2022-12-28T18:43:46.845Z,-0.78
2022-12-28T18:46:15.036Z,-0.76
2022-12-28T18:48:42.472Z,-1.08
2022-12-28T18:51:17.489Z,-0.78
2022-12-28T18:53:45.827Z,-0.95
2022-12-28T18:56:18.852Z,-1.20
2022-12-28T18:58:53.989Z,-0.73
2022-12-28T19:04:12.556Z,-0.80
2022-12-28T19:06:40.897Z,-0.80
2022-12-28T19:09:09.893Z,-0.75
2022-12-28T19:11:38.460Z,-0.73
2022-12-28T19:14:08.514Z,-1.24
2022-12-28T19:16:36.146Z,-0.77
2022-12-28T19:19:03.664Z,-0.82
2022-12-28T19:21:41.531Z,-0.79
2022-12-28T19:24:15.546Z,-0.75
2022-12-28T19:26:43.793Z,-0.81
2022-12-28T19:29:13.345Z,-0.74
2022-12-28T19:31:40.901Z,-0.67
2022-12-28T19:34:09.159Z,-0.70
2022-12-28T19:36:36.872Z,-0.75
2022-12-28T19:39:04.372Z,-0.75
2022-12-28T19:41:32.119Z,-0.75
2022-12-28T19:44:00.023Z,-0.79
2022-12-28T19:46:31.478Z,-0.75
2022-12-28T19:49:01.108Z,-0.84
2022-12-28T19:51:31.617Z,-0.75
2022-12-28T19:54:00.677Z,-1.00
2022-12-28T19:56:28.421Z,-0.70
2022-12-28T19:59:03.163Z,-0.71
2022-12-28T20:01:34.521Z,-0.67
2022-12-28T20:04:05.676Z,-0.61
2022-12-28T20:06:39.286Z,-0.61
2022-12-28T20:09:06.780Z,-0.54
2022-12-28T20:11:34.177Z,-0.53
2022-12-28T20:14:03.696Z,-0.52
2022-12-28T20:16:36.135Z,-0.51
2022-12-28T20:19:07.119Z,-0.52
2022-12-28T20:21:36.182Z,-0.50
2022-12-28T20:24:04.130Z,-0.51
2022-12-28T20:26:32.906Z,-0.51
2022-12-28T20:29:01.743Z,-0.48
2022-12-28T20:31:30.030Z,-0.53
2022-12-28T20:33:57.686Z,-1.12
2022-12-28T20:36:27.587Z,-0.49
2022-12-28T20:38:55.985Z,-0.48
2022-12-28T20:41:46.711Z,-0.88
2022-12-28T20:44:25.688Z,-0.49
2022-12-28T20:46:54.487Z,-0.42
2022-12-28T20:49:23.317Z,-0.40
2022-12-28T20:51:51.590Z,-0.64
2022-12-28T20:54:19.914Z,-0.32
2022-12-28T20:56:53.911Z,-0.32
2022-12-28T20:59:22.941Z,-0.42
2022-12-28T21:01:52.086Z,-0.42
2022-12-28T21:04:19.948Z,-0.40
2022-12-28T21:06:47.703Z,-0.37
2022-12-28T21:09:15.189Z,-0.30
2022-12-28T21:11:42.573Z,-0.29
2022-12-28T21:14:10.230Z,-0.25
2022-12-28T21:16:37.825Z,-0.24
2022-12-28T21:19:05.349Z,-0.20
2022-12-28T21:21:32.824Z,-0.81
2022-12-28T21:24:03.074Z,-0.24
2022-12-28T21:26:30.454Z,-0.30
2022-12-28T21:28:58.993Z,-0.22
2022-12-28T21:31:26.669Z,-0.20
2022-12-28T21:33:57.032Z,-0.25
2022-12-28T21:36:24.538Z,-0.22
2022-12-28T21:38:52.303Z,-0.17
2022-12-28T21:41:40.766Z,-0.26
2022-12-28T21:44:12.217Z,-0.15
2022-12-28T21:46:40.119Z,-0.77
2022-12-28T21:49:28.253Z,-0.11
2022-12-28T21:52:00.119Z,-0.45
2022-12-28T21:54:28.016Z,-0.16
2022-12-28T21:56:56.963Z,-0.18
2022-12-28T21:59:25.399Z,-0.17
2022-12-28T22:02:12.310Z,-0.15
2022-12-28T22:05:02.904Z,-0.15
2022-12-28T22:07:31.508Z,-0.13
2022-12-28T22:10:17.464Z,-0.11
2022-12-28T22:12:45.316Z,-0.11
2022-12-28T22:15:33.720Z,-0.65
2022-12-28T22:18:04.205Z,-0.11
2022-12-28T22:20:33.435Z,-0.11
2022-12-28T22:23:02.572Z,-0.29
2022-12-28T22:25:31.633Z,-0.12
2022-12-28T22:27:59.962Z,-0.12
2022-12-28T22:30:28.186Z,-0.07
2022-12-28T22:32:55.486Z,-0.10
2022-12-28T22:35:23.766Z,-0.12
2022-12-28T22:37:51.378Z,-0.41
2022-12-28T22:40:19.411Z,-0.10
2022-12-28T22:42:49.720Z,-0.09
2022-12-28T22:45:19.375Z,-0.12
2022-12-28T22:47:47.490Z,-0.06
2022-12-28T22:50:17.876Z,-0.09
2022-12-28T22:52:45.885Z,-0.38
2022-12-28T22:55:13.502Z,-0.24
2022-12-28T22:57:41.242Z,-0.18
2022-12-28T23:00:11.792Z,-0.21
2022-12-28T23:02:39.285Z,-0.18
2022-12-28T23:05:07.001Z,-0.20
2022-12-28T23:07:36.443Z,-0.47
2022-12-28T23:10:04.546Z,-0.14
2022-12-28T23:12:31.957Z,-0.17
2022-12-28T23:15:19.862Z,-0.43
2022-12-28T23:17:49.572Z,-0.19
2022-12-28T23:20:35.766Z,-0.12
2022-12-28T23:23:21.832Z,-0.14
2022-12-28T23:26:07.994Z,-0.13
2022-12-28T23:28:36.303Z,-0.50
2022-12-28T23:31:03.917Z,-0.17
2022-12-28T23:33:31.718Z,-0.19
2022-12-28T23:36:02.757Z,-0.17
2022-12-28T23:38:32.503Z,-0.15
2022-12-28T23:41:22.889Z,-0.18
2022-12-28T23:43:50.916Z,-0.19
2022-12-28T23:46:18.337Z,-0.20
2022-12-28T23:48:45.713Z,-0.16
2022-12-28T23:51:13.336Z,-0.19
2022-12-28T23:53:41.080Z,-0.20
2022-12-28T23:56:08.631Z,-0.24
2022-12-28T23:58:35.906Z,-0.23
